sensor_id;sensor_type;location;lat;lon;timestamp;temperature;humidity
592;DHT22;283;53.608;10.046;2022-08-03T00:01:42;21.60;99.90
592;DHT22;283;53.608;10.046;2022-08-03T00:04:12;21.50;99.90
592;DHT22;283;53.608;10.046;2022-08-03T00:06:39;21.40;99.90
592;DHT22;283;53.608;10.046;2022-08-03T00:09:08;21.40;99.90
592;DHT22;283;53.608;10.046;2022-08-03T00:11:36;21.30;99.90
592;DHT22;283;53.608;10.046;2022-08-03T00:14:04;21.20;99.90
592;DHT22;283;53.608;10.046;2022-08-03T00:16:33;21.20;99.90
592;DHT22;283;53.608;10.046;2022-08-03T00:19:01;21.10;99.90
592;DHT22;283;53.608;10.046;2022-08-03T00:21:31;21.00;99.90
592;DHT22;283;53.608;10.046;2022-08-03T00:23:59;21.00;99.90
592;DHT22;283;53.608;10.046;2022-08-03T00:26:27;21.00;99.90
592;DHT22;283;53.608;10.046;2022-08-03T00:28:54;21.00;99.90
592;DHT22;283;53.608;10.046;2022-08-03T00:31:22;20.90;99.90
592;DHT22;283;53.608;10.046;2022-08-03T00:34:10;20.90;99.90
592;DHT22;283;53.608;10.046;2022-08-03T00:36:39;21.00;99.90
592;DHT22;283;53.608;10.046;2022-08-03T00:39:07;21.00;99.90
592;DHT22;283;53.608;10.046;2022-08-03T00:41:35;21.00;99.90
592;DHT22;283;53.608;10.046;2022-08-03T00:44:03;21.10;99.90
592;DHT22;283;53.608;10.046;2022-08-03T00:46:31;21.00;99.90
592;DHT22;283;53.608;10.046;2022-08-03T00:48:59;21.00;99.90
592;DHT22;283;53.608;10.046;2022-08-03T00:51:27;21.00;99.90
592;DHT22;283;53.608;10.046;2022-08-03T00:53:57;20.90;99.90
592;DHT22;283;53.608;10.046;2022-08-03T00:56:25;20.80;99.90
592;DHT22;283;53.608;10.046;2022-08-03T00:58:56;20.80;99.90
592;DHT22;283;53.608;10.046;2022-08-03T01:01:25;20.70;99.90
592;DHT22;283;53.608;10.046;2022-08-03T01:03:58;20.60;99.90
592;DHT22;283;53.608;10.046;2022-08-03T01:06:35;20.60;99.90
592;DHT22;283;53.608;10.046;2022-08-03T01:09:12;20.50;99.90
592;DHT22;283;53.608;10.046;2022-08-03T01:11:47;20.50;99.90
592;DHT22;283;53.608;10.046;2022-08-03T01:14:31;20.40;99.90
592;DHT22;283;53.608;10.046;2022-08-03T01:17:08;20.30;99.90
592;DHT22;283;53.608;10.046;2022-08-03T01:19:48;20.30;99.90
592;DHT22;283;53.608;10.046;2022-08-03T01:22:39;20.20;99.90
592;DHT22;283;53.608;10.046;2022-08-03T01:25:23;20.20;99.90
592;DHT22;283;53.608;10.046;2022-08-03T01:28:01;20.10;99.90
592;DHT22;283;53.608;10.046;2022-08-03T01:30:35;20.10;99.90
592;DHT22;283;53.608;10.046;2022-08-03T01:33:07;20.00;99.90
592;DHT22;283;53.608;10.046;2022-08-03T01:35:42;20.00;99.90
592;DHT22;283;53.608;10.046;2022-08-03T01:38:14;20.00;99.90
592;DHT22;283;53.608;10.046;2022-08-03T01:40:43;20.00;99.90
592;DHT22;283;53.608;10.046;2022-08-03T01:43:15;19.90;99.90
592;DHT22;283;53.608;10.046;2022-08-03T01:46:05;19.90;99.90
592;DHT22;283;53.608;10.046;2022-08-03T01:48:35;19.90;99.90
592;DHT22;283;53.608;10.046;2022-08-03T01:51:05;19.90;99.90
592;DHT22;283;53.608;10.046;2022-08-03T01:53:34;19.80;99.90
592;DHT22;283;53.608;10.046;2022-08-03T01:56:05;19.80;99.90
592;DHT22;283;53.608;10.046;2022-08-03T01:58:34;19.80;99.90
592;DHT22;283;53.608;10.046;2022-08-03T02:01:04;19.80;99.90
592;DHT22;283;53.608;10.046;2022-08-03T02:03:36;19.80;99.90
592;DHT22;283;53.608;10.046;2022-08-03T02:06:25;19.70;99.90
592;DHT22;283;53.608;10.046;2022-08-03T02:09:14;19.70;99.90
592;DHT22;283;53.608;10.046;2022-08-03T02:11:42;19.60;99.90
592;DHT22;283;53.608;10.046;2022-08-03T02:14:12;19.60;99.90
592;DHT22;283;53.608;10.046;2022-08-03T02:22:09;19.50;99.90
592;DHT22;283;53.608;10.046;2022-08-03T02:24:37;19.50;99.90
592;DHT22;283;53.608;10.046;2022-08-03T02:27:17;19.50;99.90
592;DHT22;283;53.608;10.046;2022-08-03T02:29:52;19.50;99.90
592;DHT22;283;53.608;10.046;2022-08-03T02:32:27;19.50;99.90
592;DHT22;283;53.608;10.046;2022-08-03T02:34:57;19.40;99.90
592;DHT22;283;53.608;10.046;2022-08-03T02:37:31;19.40;99.90
592;DHT22;283;53.608;10.046;2022-08-03T02:40:02;19.40;99.90
592;DHT22;283;53.608;10.046;2022-08-03T02:42:32;19.40;99.90
592;DHT22;283;53.608;10.046;2022-08-03T02:45:03;19.40;99.90
592;DHT22;283;53.608;10.046;2022-08-03T02:47:34;19.40;99.90
592;DHT22;283;53.608;10.046;2022-08-03T02:50:21;19.30;99.90
592;DHT22;283;53.608;10.046;2022-08-03T02:52:52;19.30;99.90
592;DHT22;283;53.608;10.046;2022-08-03T02:55:21;19.30;99.90
592;DHT22;283;53.608;10.046;2022-08-03T02:57:50;19.30;99.90
592;DHT22;283;53.608;10.046;2022-08-03T03:00:19;19.20;99.90
592;DHT22;283;53.608;10.046;2022-08-03T03:02:56;19.20;99.90
592;DHT22;283;53.608;10.046;2022-08-03T03:05:26;19.20;99.90
592;DHT22;283;53.608;10.046;2022-08-03T03:08:18;19.20;99.90
592;DHT22;283;53.608;10.046;2022-08-03T03:10:55;19.20;99.90
592;DHT22;283;53.608;10.046;2022-08-03T03:13:24;19.20;99.90
592;DHT22;283;53.608;10.046;2022-08-03T03:15:55;19.20;99.90
592;DHT22;283;53.608;10.046;2022-08-03T03:18:24;19.20;99.90
592;DHT22;283;53.608;10.046;2022-08-03T03:20:54;19.30;99.90
592;DHT22;283;53.608;10.046;2022-08-03T03:23:24;19.30;99.90
592;DHT22;283;53.608;10.046;2022-08-03T03:25:54;19.30;99.90
592;DHT22;283;53.608;10.046;2022-08-03T03:28:24;19.30;99.90
592;DHT22;283;53.608;10.046;2022-08-03T03:30:53;19.30;99.90
592;DHT22;283;53.608;10.046;2022-08-03T03:33:21;19.20;99.90
592;DHT22;283;53.608;10.046;2022-08-03T03:35:50;19.20;99.90
592;DHT22;283;53.608;10.046;2022-08-03T03:38:18;19.20;99.90
592;DHT22;283;53.608;10.046;2022-08-03T03:40:48;19.20;99.90
592;DHT22;283;53.608;10.046;2022-08-03T03:43:16;19.20;99.90
592;DHT22;283;53.608;10.046;2022-08-03T03:45:45;19.20;99.90
592;DHT22;283;53.608;10.046;2022-08-03T03:48:14;19.20;99.90
592;DHT22;283;53.608;10.046;2022-08-03T03:50:42;19.20;99.90
592;DHT22;283;53.608;10.046;2022-08-03T03:53:12;19.10;99.90
592;DHT22;283;53.608;10.046;2022-08-03T03:55:41;19.10;99.90
592;DHT22;283;53.608;10.046;2022-08-03T03:58:30;19.10;99.90
592;DHT22;283;53.608;10.046;2022-08-03T04:00:59;19.20;99.90
592;DHT22;283;53.608;10.046;2022-08-03T04:03:27;19.20;99.90
592;DHT22;283;53.608;10.046;2022-08-03T04:05:55;19.20;99.90
592;DHT22;283;53.608;10.046;2022-08-03T04:08:41;19.20;99.90
592;DHT22;283;53.608;10.046;2022-08-03T04:11:28;19.20;99.90
592;DHT22;283;53.608;10.046;2022-08-03T04:14:03;19.10;99.90
592;DHT22;283;53.608;10.046;2022-08-03T04:16:35;19.10;99.90
592;DHT22;283;53.608;10.046;2022-08-03T04:19:12;19.10;99.90
592;DHT22;283;53.608;10.046;2022-08-03T04:21:49;19.10;99.90
592;DHT22;283;53.608;10.046;2022-08-03T04:24:19;19.10;99.90
592;DHT22;283;53.608;10.046;2022-08-03T04:26:52;19.10;99.90
592;DHT22;283;53.608;10.046;2022-08-03T04:29:25;19.20;99.90
592;DHT22;283;53.608;10.046;2022-08-03T04:31:53;19.20;99.90
592;DHT22;283;53.608;10.046;2022-08-03T04:34:23;19.20;99.90
592;DHT22;283;53.608;10.046;2022-08-03T04:36:57;19.30;99.90
592;DHT22;283;53.608;10.046;2022-08-03T04:39:27;19.30;99.90
592;DHT22;283;53.608;10.046;2022-08-03T04:41:59;19.30;99.90
592;DHT22;283;53.608;10.046;2022-08-03T04:44:37;19.40;99.90
592;DHT22;283;53.608;10.046;2022-08-03T04:47:06;19.40;99.90
592;DHT22;283;53.608;10.046;2022-08-03T04:49:35;19.40;99.90
592;DHT22;283;53.608;10.046;2022-08-03T04:52:04;19.50;99.90
592;DHT22;283;53.608;10.046;2022-08-03T04:54:38;19.60;99.90
592;DHT22;283;53.608;10.046;2022-08-03T04:57:06;19.60;99.90
592;DHT22;283;53.608;10.046;2022-08-03T04:59:36;19.70;99.90
592;DHT22;283;53.608;10.046;2022-08-03T05:02:06;19.70;99.90
592;DHT22;283;53.608;10.046;2022-08-03T05:04:34;19.80;99.90
592;DHT22;283;53.608;10.046;2022-08-03T05:07:03;19.90;99.90
592;DHT22;283;53.608;10.046;2022-08-03T05:09:37;20.00;99.90
592;DHT22;283;53.608;10.046;2022-08-03T05:12:18;20.00;99.90
592;DHT22;283;53.608;10.046;2022-08-03T05:14:47;20.10;99.90
592;DHT22;283;53.608;10.046;2022-08-03T05:17:15;20.20;99.90
592;DHT22;283;53.608;10.046;2022-08-03T05:19:43;20.20;99.90
592;DHT22;283;53.608;10.046;2022-08-03T05:22:11;20.30;99.90
592;DHT22;283;53.608;10.046;2022-08-03T05:24:38;20.40;99.90
592;DHT22;283;53.608;10.046;2022-08-03T05:27:06;20.40;99.90
592;DHT22;283;53.608;10.046;2022-08-03T05:29:34;20.50;99.90
592;DHT22;283;53.608;10.046;2022-08-03T05:32:04;20.60;99.90
592;DHT22;283;53.608;10.046;2022-08-03T05:34:42;20.60;99.90
592;DHT22;283;53.608;10.046;2022-08-03T05:37:10;20.70;99.90
592;DHT22;283;53.608;10.046;2022-08-03T05:39:38;20.80;99.90
592;DHT22;283;53.608;10.046;2022-08-03T05:42:06;20.80;99.90
592;DHT22;283;53.608;10.046;2022-08-03T05:44:34;20.90;99.90
592;DHT22;283;53.608;10.046;2022-08-03T05:47:05;21.00;99.90
592;DHT22;283;53.608;10.046;2022-08-03T05:49:33;21.00;99.90
592;DHT22;283;53.608;10.046;2022-08-03T05:52:02;21.10;99.90
592;DHT22;283;53.608;10.046;2022-08-03T05:54:37;21.20;99.90
592;DHT22;283;53.608;10.046;2022-08-03T05:57:23;21.30;99.90
592;DHT22;283;53.608;10.046;2022-08-03T05:59:51;21.30;99.90
592;DHT22;283;53.608;10.046;2022-08-03T06:02:25;21.40;99.90
592;DHT22;283;53.608;10.046;2022-08-03T06:04:53;21.50;99.90
592;DHT22;283;53.608;10.046;2022-08-03T06:07:21;21.60;99.90
592;DHT22;283;53.608;10.046;2022-08-03T06:09:49;21.70;99.90
592;DHT22;283;53.608;10.046;2022-08-03T06:12:37;21.80;99.90
592;DHT22;283;53.608;10.046;2022-08-03T06:15:07;21.90;99.90
592;DHT22;283;53.608;10.046;2022-08-03T06:17:45;21.90;99.90
592;DHT22;283;53.608;10.046;2022-08-03T06:20:16;22.00;99.90
592;DHT22;283;53.608;10.046;2022-08-03T06:22:45;22.10;99.90
592;DHT22;283;53.608;10.046;2022-08-03T06:25:26;22.20;99.90
592;DHT22;283;53.608;10.046;2022-08-03T06:27:54;22.30;99.90
592;DHT22;283;53.608;10.046;2022-08-03T06:30:22;22.40;99.90
592;DHT22;283;53.608;10.046;2022-08-03T06:32:51;22.60;99.90
592;DHT22;283;53.608;10.046;2022-08-03T06:35:19;22.70;99.90
592;DHT22;283;53.608;10.046;2022-08-03T06:37:48;22.70;99.90
592;DHT22;283;53.608;10.046;2022-08-03T06:40:19;22.80;99.90
592;DHT22;283;53.608;10.046;2022-08-03T06:42:50;22.90;99.90
592;DHT22;283;53.608;10.046;2022-08-03T06:45:18;23.00;99.90
592;DHT22;283;53.608;10.046;2022-08-03T06:47:46;23.00;99.90
592;DHT22;283;53.608;10.046;2022-08-03T06:50:17;23.10;99.90
592;DHT22;283;53.608;10.046;2022-08-03T06:52:51;23.20;99.90
592;DHT22;283;53.608;10.046;2022-08-03T06:55:19;23.30;99.90
592;DHT22;283;53.608;10.046;2022-08-03T06:57:47;23.40;99.90
592;DHT22;283;53.608;10.046;2022-08-03T07:00:15;23.40;99.90
592;DHT22;283;53.608;10.046;2022-08-03T07:02:43;23.50;99.90
592;DHT22;283;53.608;10.046;2022-08-03T07:05:14;23.60;99.90
592;DHT22;283;53.608;10.046;2022-08-03T07:07:42;23.70;99.90
592;DHT22;283;53.608;10.046;2022-08-03T07:10:10;23.70;99.90
592;DHT22;283;53.608;10.046;2022-08-03T07:12:38;23.70;99.90
592;DHT22;283;53.608;10.046;2022-08-03T07:15:22;23.80;99.90
592;DHT22;283;53.608;10.046;2022-08-03T07:18:10;23.80;99.90
592;DHT22;283;53.608;10.046;2022-08-03T07:20:39;23.90;99.90
592;DHT22;283;53.608;10.046;2022-08-03T07:23:07;24.00;99.90
592;DHT22;283;53.608;10.046;2022-08-03T07:25:44;24.00;99.90
592;DHT22;283;53.608;10.046;2022-08-03T07:28:12;24.10;99.90
592;DHT22;283;53.608;10.046;2022-08-03T07:30:40;24.20;99.90
592;DHT22;283;53.608;10.046;2022-08-03T07:33:08;24.30;99.90
592;DHT22;283;53.608;10.046;2022-08-03T07:35:36;24.40;99.90
592;DHT22;283;53.608;10.046;2022-08-03T07:38:05;24.50;99.90
592;DHT22;283;53.608;10.046;2022-08-03T07:40:33;24.70;99.90
592;DHT22;283;53.608;10.046;2022-08-03T07:43:01;24.70;99.90
592;DHT22;283;53.608;10.046;2022-08-03T07:45:29;24.80;99.90
592;DHT22;283;53.608;10.046;2022-08-03T07:47:57;25.00;99.90
592;DHT22;283;53.608;10.046;2022-08-03T07:50:25;25.10;99.90
592;DHT22;283;53.608;10.046;2022-08-03T07:52:53;25.20;99.90
592;DHT22;283;53.608;10.046;2022-08-03T07:55:24;25.30;99.90
592;DHT22;283;53.608;10.046;2022-08-03T07:58:03;25.40;99.90
592;DHT22;283;53.608;10.046;2022-08-03T08:00:32;25.50;99.90
592;DHT22;283;53.608;10.046;2022-08-03T08:03:00;25.60;99.90
592;DHT22;283;53.608;10.046;2022-08-03T08:05:28;25.70;99.90
592;DHT22;283;53.608;10.046;2022-08-03T08:07:56;25.80;99.90
592;DHT22;283;53.608;10.046;2022-08-03T08:10:25;25.90;99.90
592;DHT22;283;53.608;10.046;2022-08-03T08:12:53;25.90;99.90
592;DHT22;283;53.608;10.046;2022-08-03T08:15:21;26.00;99.90
592;DHT22;283;53.608;10.046;2022-08-03T08:17:51;26.00;99.90
592;DHT22;283;53.608;10.046;2022-08-03T08:20:20;26.10;99.90
592;DHT22;283;53.608;10.046;2022-08-03T08:22:57;26.10;99.90
592;DHT22;283;53.608;10.046;2022-08-03T08:25:29;26.00;99.90
592;DHT22;283;53.608;10.046;2022-08-03T08:27:58;26.00;99.90
592;DHT22;283;53.608;10.046;2022-08-03T08:30:47;26.10;99.90
592;DHT22;283;53.608;10.046;2022-08-03T08:33:15;26.10;99.90
592;DHT22;283;53.608;10.046;2022-08-03T08:35:50;26.30;99.90
592;DHT22;283;53.608;10.046;2022-08-03T08:38:18;26.30;99.90
592;DHT22;283;53.608;10.046;2022-08-03T08:40:48;26.50;99.90
592;DHT22;283;53.608;10.046;2022-08-03T08:43:16;26.50;99.90
592;DHT22;283;53.608;10.046;2022-08-03T08:45:44;26.60;99.90
592;DHT22;283;53.608;10.046;2022-08-03T08:48:14;26.80;99.90
592;DHT22;283;53.608;10.046;2022-08-03T08:50:42;26.90;99.90
592;DHT22;283;53.608;10.046;2022-08-03T08:53:11;27.10;99.90
592;DHT22;283;53.608;10.046;2022-08-03T08:55:45;27.10;99.90
592;DHT22;283;53.608;10.046;2022-08-03T08:58:28;27.10;99.90
592;DHT22;283;53.608;10.046;2022-08-03T09:00:56;27.10;99.90
592;DHT22;283;53.608;10.046;2022-08-03T09:03:25;27.10;99.90
592;DHT22;283;53.608;10.046;2022-08-03T09:05:59;27.20;99.90
592;DHT22;283;53.608;10.046;2022-08-03T09:08:28;27.20;99.90
592;DHT22;283;53.608;10.046;2022-08-03T09:10:56;27.20;99.90
592;DHT22;283;53.608;10.046;2022-08-03T09:13:24;27.20;99.90
592;DHT22;283;53.608;10.046;2022-08-03T09:16:12;27.20;99.90
592;DHT22;283;53.608;10.046;2022-08-03T09:18:41;27.10;99.90
592;DHT22;283;53.608;10.046;2022-08-03T09:21:19;27.20;99.90
592;DHT22;283;53.608;10.046;2022-08-03T09:24:04;27.30;99.90
592;DHT22;283;53.608;10.046;2022-08-03T09:26:49;27.30;99.90
592;DHT22;283;53.608;10.046;2022-08-03T09:29:20;27.30;99.90
592;DHT22;283;53.608;10.046;2022-08-03T09:31:59;27.30;99.90
592;DHT22;283;53.608;10.046;2022-08-03T09:34:28;27.20;99.90
592;DHT22;283;53.608;10.046;2022-08-03T09:36:56;27.30;99.90
592;DHT22;283;53.608;10.046;2022-08-03T09:39:25;27.40;99.90
592;DHT22;283;53.608;10.046;2022-08-03T09:42:09;27.50;99.90
592;DHT22;283;53.608;10.046;2022-08-03T09:44:42;27.70;99.90
592;DHT22;283;53.608;10.046;2022-08-03T09:47:13;27.70;99.90
592;DHT22;283;53.608;10.046;2022-08-03T09:49:42;27.70;99.90
592;DHT22;283;53.608;10.046;2022-08-03T09:52:29;27.70;99.90
592;DHT22;283;53.608;10.046;2022-08-03T09:55:17;27.80;99.90
592;DHT22;283;53.608;10.046;2022-08-03T09:58:07;27.80;99.90
592;DHT22;283;53.608;10.046;2022-08-03T10:00:52;27.90;99.90
592;DHT22;283;53.608;10.046;2022-08-03T10:03:22;28.00;99.90
592;DHT22;283;53.608;10.046;2022-08-03T10:05:51;28.10;99.90
592;DHT22;283;53.608;10.046;2022-08-03T10:08:25;28.20;99.90
592;DHT22;283;53.608;10.046;2022-08-03T10:10:53;28.40;99.90
592;DHT22;283;53.608;10.046;2022-08-03T10:13:22;28.40;99.90
592;DHT22;283;53.608;10.046;2022-08-03T10:15:50;28.50;99.90
592;DHT22;283;53.608;10.046;2022-08-03T10:18:39;28.40;99.90
592;DHT22;283;53.608;10.046;2022-08-03T10:21:10;28.50;99.90
592;DHT22;283;53.608;10.046;2022-08-03T10:23:40;28.50;99.90
592;DHT22;283;53.608;10.046;2022-08-03T10:26:12;28.60;99.90
592;DHT22;283;53.608;10.046;2022-08-03T10:28:48;28.70;99.90
592;DHT22;283;53.608;10.046;2022-08-03T10:31:17;28.70;99.90
592;DHT22;283;53.608;10.046;2022-08-03T10:33:49;28.70;99.90
592;DHT22;283;53.608;10.046;2022-08-03T10:36:22;28.60;99.90
592;DHT22;283;53.608;10.046;2022-08-03T10:38:51;28.60;99.90
592;DHT22;283;53.608;10.046;2022-08-03T10:41:20;28.70;99.90
592;DHT22;283;53.608;10.046;2022-08-03T10:43:53;28.70;99.90
592;DHT22;283;53.608;10.046;2022-08-03T10:46:23;28.70;99.90
592;DHT22;283;53.608;10.046;2022-08-03T10:48:54;28.80;99.90
592;DHT22;283;53.608;10.046;2022-08-03T10:51:23;28.90;99.90
592;DHT22;283;53.608;10.046;2022-08-03T10:53:56;28.90;99.90
592;DHT22;283;53.608;10.046;2022-08-03T10:56:38;28.90;99.90
592;DHT22;283;53.608;10.046;2022-08-03T11:00:04;28.80;99.90
592;DHT22;283;53.608;10.046;2022-08-03T11:05:46;28.80;99.90
592;DHT22;283;53.608;10.046;2022-08-03T11:08:29;28.90;99.90
592;DHT22;283;53.608;10.046;2022-08-03T11:11:00;29.00;99.90
592;DHT22;283;53.608;10.046;2022-08-03T11:13:29;29.10;99.90
592;DHT22;283;53.608;10.046;2022-08-03T11:16:02;29.10;99.90
592;DHT22;283;53.608;10.046;2022-08-03T11:18:35;29.20;99.90
592;DHT22;283;53.608;10.046;2022-08-03T11:21:04;29.20;99.90
592;DHT22;283;53.608;10.046;2022-08-03T11:23:43;29.20;99.90
592;DHT22;283;53.608;10.046;2022-08-03T11:26:31;29.30;99.90
592;DHT22;283;53.608;10.046;2022-08-03T11:29:26;29.50;99.90
592;DHT22;283;53.608;10.046;2022-08-03T11:31:54;29.50;99.90
592;DHT22;283;53.608;10.046;2022-08-03T11:34:22;29.50;99.90
592;DHT22;283;53.608;10.046;2022-08-03T11:37:21;29.50;99.90
592;DHT22;283;53.608;10.046;2022-08-03T11:39:53;29.50;99.90
592;DHT22;283;53.608;10.046;2022-08-03T11:42:41;29.40;99.90
592;DHT22;283;53.608;10.046;2022-08-03T11:45:13;29.40;99.90
592;DHT22;283;53.608;10.046;2022-08-03T11:47:41;29.50;99.90
592;DHT22;283;53.608;10.046;2022-08-03T11:50:17;29.60;99.90
592;DHT22;283;53.608;10.046;2022-08-03T11:52:47;29.70;99.90
592;DHT22;283;53.608;10.046;2022-08-03T11:55:18;29.80;99.90
592;DHT22;283;53.608;10.046;2022-08-03T11:57:47;29.90;99.90
592;DHT22;283;53.608;10.046;2022-08-03T12:00:35;29.90;99.90
592;DHT22;283;53.608;10.046;2022-08-03T12:03:05;29.90;99.90
592;DHT22;283;53.608;10.046;2022-08-03T12:05:35;29.90;99.90
592;DHT22;283;53.608;10.046;2022-08-03T12:08:09;30.00;99.90
592;DHT22;283;53.608;10.046;2022-08-03T12:10:38;30.10;99.90
592;DHT22;283;53.608;10.046;2022-08-03T12:13:07;30.20;99.90
592;DHT22;283;53.608;10.046;2022-08-03T12:15:56;30.20;99.90
592;DHT22;283;53.608;10.046;2022-08-03T12:18:25;30.20;99.90
592;DHT22;283;53.608;10.046;2022-08-03T12:21:03;30.10;99.90
592;DHT22;283;53.608;10.046;2022-08-03T12:23:32;30.20;99.90
592;DHT22;283;53.608;10.046;2022-08-03T12:26:04;30.30;99.90
592;DHT22;283;53.608;10.046;2022-08-03T12:28:33;30.30;99.90
592;DHT22;283;53.608;10.046;2022-08-03T12:31:06;30.40;99.90
592;DHT22;283;53.608;10.046;2022-08-03T12:33:56;30.40;99.90
592;DHT22;283;53.608;10.046;2022-08-03T12:36:26;30.50;99.90
592;DHT22;283;53.608;10.046;2022-08-03T12:38:56;30.50;99.90
592;DHT22;283;53.608;10.046;2022-08-03T12:41:29;30.70;99.90
592;DHT22;283;53.608;10.046;2022-08-03T12:43:57;30.60;99.90
592;DHT22;283;53.608;10.046;2022-08-03T12:46:30;30.70;99.90
592;DHT22;283;53.608;10.046;2022-08-03T12:49:08;30.70;99.90
592;DHT22;283;53.608;10.046;2022-08-03T12:51:54;30.80;99.90
592;DHT22;283;53.608;10.046;2022-08-03T12:54:25;30.80;99.90
592;DHT22;283;53.608;10.046;2022-08-03T12:56:58;30.70;99.90
592;DHT22;283;53.608;10.046;2022-08-03T12:59:27;30.70;99.90
592;DHT22;283;53.608;10.046;2022-08-03T13:02:01;30.70;99.90
592;DHT22;283;53.608;10.046;2022-08-03T13:04:32;30.80;99.90
592;DHT22;283;53.608;10.046;2022-08-03T13:07:03;30.90;99.90
592;DHT22;283;53.608;10.046;2022-08-03T13:09:43;30.80;99.90
592;DHT22;283;53.608;10.046;2022-08-03T13:12:13;30.80;99.90
592;DHT22;283;53.608;10.046;2022-08-03T13:14:42;30.90;99.90
592;DHT22;283;53.608;10.046;2022-08-03T13:17:10;30.90;99.90
592;DHT22;283;53.608;10.046;2022-08-03T13:19:39;30.90;99.90
592;DHT22;283;53.608;10.046;2022-08-03T13:22:11;31.00;99.90
592;DHT22;283;53.608;10.046;2022-08-03T13:24:40;31.00;99.90
592;DHT22;283;53.608;10.046;2022-08-03T13:27:09;31.10;99.90
592;DHT22;283;53.608;10.046;2022-08-03T13:29:57;31.10;99.90
592;DHT22;283;53.608;10.046;2022-08-03T13:32:25;31.10;99.90
592;DHT22;283;53.608;10.046;2022-08-03T13:34:53;31.10;99.90
592;DHT22;283;53.608;10.046;2022-08-03T13:37:21;31.00;99.90
592;DHT22;283;53.608;10.046;2022-08-03T13:39:50;31.10;99.90
592;DHT22;283;53.608;10.046;2022-08-03T13:42:28;31.10;99.90
592;DHT22;283;53.608;10.046;2022-08-03T13:44:56;31.00;99.90
592;DHT22;283;53.608;10.046;2022-08-03T13:47:24;31.00;99.90
592;DHT22;283;53.608;10.046;2022-08-03T13:49:53;31.00;99.90
592;DHT22;283;53.608;10.046;2022-08-03T13:52:31;31.00;99.90
592;DHT22;283;53.608;10.046;2022-08-03T13:55:00;31.20;99.90
592;DHT22;283;53.608;10.046;2022-08-03T13:57:30;31.10;99.90
592;DHT22;283;53.608;10.046;2022-08-03T14:00:18;31.10;99.90
592;DHT22;283;53.608;10.046;2022-08-03T14:02:54;31.00;99.90
592;DHT22;283;53.608;10.046;2022-08-03T14:05:30;31.00;99.90
592;DHT22;283;53.608;10.046;2022-08-03T14:07:58;31.10;99.90
592;DHT22;283;53.608;10.046;2022-08-03T14:10:30;31.20;99.90
592;DHT22;283;53.608;10.046;2022-08-03T14:12:59;31.20;99.90
592;DHT22;283;53.608;10.046;2022-08-03T14:15:27;31.10;99.90
592;DHT22;283;53.608;10.046;2022-08-03T14:17:55;31.20;99.90
592;DHT22;283;53.608;10.046;2022-08-03T14:20:24;31.20;99.90
592;DHT22;283;53.608;10.046;2022-08-03T14:23:11;31.20;99.90
592;DHT22;283;53.608;10.046;2022-08-03T14:25:39;31.20;99.90
592;DHT22;283;53.608;10.046;2022-08-03T14:28:17;31.20;99.90
592;DHT22;283;53.608;10.046;2022-08-03T14:30:45;31.30;99.90
592;DHT22;283;53.608;10.046;2022-08-03T14:33:14;31.20;99.90
592;DHT22;283;53.608;10.046;2022-08-03T14:35:42;31.20;99.90
592;DHT22;283;53.608;10.046;2022-08-03T14:38:10;31.40;99.90
592;DHT22;283;53.608;10.046;2022-08-03T14:40:37;31.40;99.90
592;DHT22;283;53.608;10.046;2022-08-03T14:43:05;31.40;99.90
592;DHT22;283;53.608;10.046;2022-08-03T14:45:34;31.40;99.90
592;DHT22;283;53.608;10.046;2022-08-03T14:48:03;31.30;99.90
592;DHT22;283;53.608;10.046;2022-08-03T14:50:51;31.30;99.90
592;DHT22;283;53.608;10.046;2022-08-03T14:53:20;31.30;99.90
592;DHT22;283;53.608;10.046;2022-08-03T14:55:48;31.40;99.90
592;DHT22;283;53.608;10.046;2022-08-03T14:58:18;31.40;99.90
592;DHT22;283;53.608;10.046;2022-08-03T15:00:50;31.40;99.90
592;DHT22;283;53.608;10.046;2022-08-03T15:03:19;31.50;99.90
592;DHT22;283;53.608;10.046;2022-08-03T15:05:49;31.50;99.90
592;DHT22;283;53.608;10.046;2022-08-03T15:08:18;31.50;99.90
592;DHT22;283;53.608;10.046;2022-08-03T15:10:46;31.60;99.90
592;DHT22;283;53.608;10.046;2022-08-03T15:13:15;31.60;99.90
592;DHT22;283;53.608;10.046;2022-08-03T15:15:43;31.60;99.90
592;DHT22;283;53.608;10.046;2022-08-03T15:18:12;31.60;99.90
592;DHT22;283;53.608;10.046;2022-08-03T15:20:40;31.60;99.90
592;DHT22;283;53.608;10.046;2022-08-03T15:23:12;31.50;99.90
592;DHT22;283;53.608;10.046;2022-08-03T15:25:41;31.40;99.90
592;DHT22;283;53.608;10.046;2022-08-03T15:28:29;31.30;99.90
592;DHT22;283;53.608;10.046;2022-08-03T15:30:56;31.20;99.90
592;DHT22;283;53.608;10.046;2022-08-03T15:33:26;31.20;99.90
592;DHT22;283;53.608;10.046;2022-08-03T15:35:55;31.10;99.90
592;DHT22;283;53.608;10.046;2022-08-03T15:38:23;31.10;99.90
592;DHT22;283;53.608;10.046;2022-08-03T15:40:52;31.20;99.90
592;DHT22;283;53.608;10.046;2022-08-03T15:43:21;31.30;99.90
592;DHT22;283;53.608;10.046;2022-08-03T15:45:49;31.30;99.90
592;DHT22;283;53.608;10.046;2022-08-03T15:48:38;31.40;99.90
592;DHT22;283;53.608;10.046;2022-08-03T15:51:06;31.30;99.90
592;DHT22;283;53.608;10.046;2022-08-03T15:53:35;31.20;99.90
592;DHT22;283;53.608;10.046;2022-08-03T15:56:04;31.20;99.90
592;DHT22;283;53.608;10.046;2022-08-03T15:58:39;31.20;99.90
592;DHT22;283;53.608;10.046;2022-08-03T16:01:27;31.20;99.90
592;DHT22;283;53.608;10.046;2022-08-03T16:03:56;31.30;99.90
592;DHT22;283;53.608;10.046;2022-08-03T16:06:24;31.30;99.90
592;DHT22;283;53.608;10.046;2022-08-03T16:09:01;31.40;99.90
592;DHT22;283;53.608;10.046;2022-08-03T16:11:29;31.40;99.90
592;DHT22;283;53.608;10.046;2022-08-03T16:13:57;31.50;99.90
592;DHT22;283;53.608;10.046;2022-08-03T16:16:45;31.50;99.90
592;DHT22;283;53.608;10.046;2022-08-03T16:19:14;31.50;99.90
592;DHT22;283;53.608;10.046;2022-08-03T16:21:42;31.40;99.90
592;DHT22;283;53.608;10.046;2022-08-03T16:24:14;31.50;99.90
592;DHT22;283;53.608;10.046;2022-08-03T16:26:51;31.40;99.90
592;DHT22;283;53.608;10.046;2022-08-03T16:29:19;31.40;99.90
592;DHT22;283;53.608;10.046;2022-08-03T16:31:49;31.40;99.90
592;DHT22;283;53.608;10.046;2022-08-03T16:34:19;31.40;99.90
592;DHT22;283;53.608;10.046;2022-08-03T16:36:47;31.30;99.90
592;DHT22;283;53.608;10.046;2022-08-03T16:39:15;31.40;99.90
592;DHT22;283;53.608;10.046;2022-08-03T16:41:43;31.40;99.90
592;DHT22;283;53.608;10.046;2022-08-03T16:44:27;31.30;99.90
592;DHT22;283;53.608;10.046;2022-08-03T16:46:55;31.40;99.90
592;DHT22;283;53.608;10.046;2022-08-03T16:49:24;31.40;99.90
592;DHT22;283;53.608;10.046;2022-08-03T16:52:12;31.30;99.90
592;DHT22;283;53.608;10.046;2022-08-03T16:54:43;31.20;99.90
592;DHT22;283;53.608;10.046;2022-08-03T16:57:19;31.20;99.90
592;DHT22;283;53.608;10.046;2022-08-03T17:00:08;31.20;99.90